Time;durP1;ratioP1;P1;durP2;ratioP2;P2;SDS_P1;SDS_P2;PMS_P1;PMS_P2;Temp;Humidity;BMP_temperature;BMP_pressure;BME280_temperature;BME280_humidity;BME280_pressure;Samples;Min_cycle;Max_cycle;Signal;HPM_P1;HPM_P2
2024/01/06 00:00:30;;;;;;;35.30;20.40;;;6.50;99.90;;;;;;5032970;28;20428;-73
2024/01/06 00:02:56;;;;;;;36.13;21.10;;;6.50;99.90;;;;;;5033094;28;20483;-73
2024/01/06 00:05:21;;;;;;;31.73;19.60;;;6.60;99.90;;;;;;5033350;28;20113;-73
2024/01/06 00:07:47;;;;;;;31.77;19.02;;;6.50;99.90;;;;;;5032949;28;20032;-73
2024/01/06 00:10:12;;;;;;;32.70;19.70;;;6.50;99.90;;;;;;5033243;28;20036;-73
2024/01/06 00:12:38;;;;;;;34.63;19.90;;;6.50;99.90;;;;;;5033199;28;20025;-73
2024/01/06 00:15:04;;;;;;;32.53;19.58;;;6.50;99.90;;;;;;5033150;28;20388;-73
2024/01/06 00:17:29;;;;;;;32.70;20.15;;;6.50;99.90;;;;;;5033188;28;20112;-73
2024/01/06 00:19:55;;;;;;;34.20;20.50;;;6.50;99.90;;;;;;5033278;28;20172;-73
2024/01/06 00:22:21;;;;;;;32.40;19.55;;;6.50;99.90;;;;;;5033123;28;20025;-73
2024/01/06 00:24:46;;;;;;;32.83;20.02;;;6.50;99.90;;;;;;5033086;28;20040;-74
2024/01/06 00:27:13;;;;;;;34.00;20.08;;;6.50;99.90;;;;;;5032710;28;20030;-73
2024/01/06 00:29:39;;;;;;;34.13;20.33;;;6.50;99.90;;;;;;5034722;28;20582;-73
2024/01/06 00:32:05;;;;;;;34.45;21.38;;;6.50;99.90;;;;;;5036982;28;20069;-73
2024/01/06 00:34:31;;;;;;;37.17;21.92;;;6.50;99.90;;;;;;5036769;28;20033;-74
2024/01/06 00:36:56;;;;;;;34.97;19.92;;;6.50;99.90;;;;;;5036939;28;20079;-73
2024/01/06 00:39:22;;;;;;;34.53;20.92;;;6.50;99.90;;;;;;5036602;28;20403;-73
2024/01/06 00:41:47;;;;;;;38.83;22.50;;;6.50;99.90;;;;;;5036481;28;20434;-73
2024/01/06 00:44:13;;;;;;;41.35;22.38;;;6.50;99.90;;;;;;5036709;28;20030;-74
2024/01/06 00:46:39;;;;;;;37.50;21.25;;;6.50;99.90;;;;;;5036764;28;20029;-73
2024/01/06 00:49:05;;;;;;;40.35;21.70;;;6.50;99.90;;;;;;5036762;28;20022;-73
2024/01/06 00:51:30;;;;;;;36.67;21.75;;;6.50;99.90;;;;;;5036796;28;20030;-73
2024/01/06 00:53:56;;;;;;;37.10;21.38;;;6.50;99.90;;;;;;5036631;28;20037;-73
2024/01/06 00:56:22;;;;;;;41.72;23.73;;;6.50;99.90;;;;;;5036284;28;20475;-74
2024/01/06 00:58:48;;;;;;;42.35;22.98;;;6.50;99.90;;;;;;5036651;28;20480;-73
2024/01/06 01:01:13;;;;;;;40.78;23.42;;;6.50;99.90;;;;;;5036495;28;20026;-73
2024/01/06 01:03:39;;;;;;;40.72;22.63;;;6.50;99.90;;;;;;5036100;28;20033;-73
2024/01/06 01:06:04;;;;;;;42.35;24.40;;;6.50;99.90;;;;;;5036307;28;20025;-73
2024/01/06 01:08:30;;;;;;;42.88;24.65;;;6.50;99.90;;;;;;5036467;28;20120;-73
2024/01/06 01:10:56;;;;;;;45.22;25.63;;;6.50;99.90;;;;;;5036366;28;20076;-73
2024/01/06 01:13:22;;;;;;;46.28;25.45;;;6.50;99.90;;;;;;5036414;28;20479;-73
2024/01/06 01:15:48;;;;;;;49.00;27.88;;;6.50;99.90;;;;;;5036320;28;20124;-74
2024/01/06 01:18:14;;;;;;;48.38;26.40;;;6.50;99.90;;;;;;5036262;28;20057;-73
2024/01/06 01:20:41;;;;;;;50.55;28.48;;;6.50;99.90;;;;;;5036126;28;20056;-73
2024/01/06 01:23:07;;;;;;;50.72;28.10;;;6.50;99.90;;;;;;5035889;28;20036;-73
2024/01/06 01:25:33;;;;;;;58.08;29.30;;;6.50;99.90;;;;;;5036053;28;20108;-73
2024/01/06 01:27:58;;;;;;;52.70;28.35;;;6.60;99.90;;;;;;5035839;28;20033;-73
2024/01/06 01:30:24;;;;;;;58.35;29.85;;;6.60;99.90;;;;;;5035562;28;20074;-73
2024/01/06 01:32:50;;;;;;;56.50;30.00;;;6.60;99.90;;;;;;5036016;28;20040;-73
2024/01/06 01:35:15;;;;;;;55.35;29.20;;;6.60;99.90;;;;;;5035446;28;20556;-74
2024/01/06 01:37:41;;;;;;;63.13;31.80;;;6.60;99.90;;;;;;5035891;28;20037;-73
2024/01/06 01:40:07;;;;;;;56.45;30.17;;;6.60;99.90;;;;;;5035155;28;20060;-73
2024/01/06 01:42:33;;;;;;;60.55;30.85;;;6.60;99.90;;;;;;5034913;28;20120;-73
2024/01/06 01:44:58;;;;;;;63.83;32.88;;;6.60;99.90;;;;;;5035829;28;20026;-73
2024/01/06 01:47:24;;;;;;;57.72;31.15;;;6.60;99.90;;;;;;5035777;28;20480;-73
2024/01/06 01:49:50;;;;;;;60.22;31.25;;;6.60;99.90;;;;;;5035758;28;20395;-74
2024/01/06 01:52:16;;;;;;;58.72;30.38;;;6.60;99.90;;;;;;5035563;28;20068;-73
2024/01/06 01:54:42;;;;;;;57.42;29.50;;;6.60;99.90;;;;;;5035535;28;20029;-73
2024/01/06 01:57:10;;;;;;;57.88;30.50;;;6.70;99.90;;;;;;5035541;28;20026;-73
2024/01/06 01:59:36;;;;;;;54.78;29.23;;;6.70;99.90;;;;;;5035474;28;20083;-74
2024/01/06 02:02:02;;;;;;;54.13;28.55;;;6.70;99.90;;;;;;5034918;28;20064;-73
2024/01/06 02:04:28;;;;;;;54.55;29.05;;;6.60;99.90;;;;;;5035361;28;20462;-73
2024/01/06 02:06:53;;;;;;;53.42;28.83;;;6.60;99.90;;;;;;5035334;28;20026;-73
2024/01/06 02:09:19;;;;;;;58.38;29.20;;;6.60;99.90;;;;;;5035330;28;20033;-74
2024/01/06 02:11:45;;;;;;;58.85;29.60;;;6.60;99.90;;;;;;5034941;28;20026;-73
2024/01/06 02:14:10;;;;;;;56.17;27.83;;;6.60;99.90;;;;;;5034852;28;20025;-73
2024/01/06 02:16:36;;;;;;;51.80;27.50;;;6.70;99.90;;;;;;5035182;28;20029;-73
2024/01/06 02:19:02;;;;;;;52.67;28.48;;;6.70;99.90;;;;;;5034711;28;20107;-73
2024/01/06 02:21:30;;;;;;;50.67;27.92;;;6.70;99.90;;;;;;5035089;28;20088;-74
2024/01/06 02:23:56;;;;;;;51.10;28.23;;;6.70;99.90;;;;;;5034745;28;20069;-74
2024/01/06 02:26:21;;;;;;;53.33;27.05;;;6.60;99.90;;;;;;5035018;28;20095;-74
2024/01/06 02:28:49;;;;;;;52.42;26.48;;;6.60;99.90;;;;;;5034865;28;20038;-73
2024/01/06 02:31:14;;;;;;;47.10;25.73;;;6.70;99.90;;;;;;5034747;28;20414;-73
2024/01/06 02:33:40;;;;;;;50.10;25.52;;;6.70;99.90;;;;;;5034781;28;20029;-73
2024/01/06 02:36:06;;;;;;;46.17;24.98;;;6.60;99.90;;;;;;5034683;28;20045;-73
2024/01/06 02:38:31;;;;;;;50.90;26.20;;;6.50;99.90;;;;;;5034056;28;20045;-73
2024/01/06 02:40:57;;;;;;;49.53;24.92;;;6.60;99.90;;;;;;5034605;28;20128;-73
2024/01/06 02:43:23;;;;;;;45.17;23.70;;;6.60;99.90;;;;;;5034266;28;20032;-73
2024/01/06 02:45:49;;;;;;;45.45;23.55;;;6.50;99.90;;;;;;5034703;28;20029;-73
2024/01/06 02:48:14;;;;;;;47.15;23.85;;;6.50;99.90;;;;;;5034414;28;20105;-74
2024/01/06 02:50:40;;;;;;;42.35;21.70;;;6.50;99.90;;;;;;5034163;28;20394;-73
2024/01/06 02:53:05;;;;;;;41.20;21.67;;;6.50;99.90;;;;;;5034283;28;20090;-73
2024/01/06 02:55:31;;;;;;;43.40;23.27;;;6.50;99.90;;;;;;5034361;28;20021;-73
2024/01/06 02:57:56;;;;;;;41.03;21.40;;;6.40;99.90;;;;;;5034459;28;20044;-74
2024/01/06 03:00:22;;;;;;;41.65;22.40;;;6.40;99.90;;;;;;5034029;28;20018;-73
2024/01/06 03:02:48;;;;;;;43.03;21.73;;;6.40;99.90;;;;;;5034139;28;20032;-73
2024/01/06 03:05:13;;;;;;;37.22;20.65;;;6.40;99.90;;;;;;5033735;28;20025;-73
2024/01/06 03:07:39;;;;;;;35.38;19.05;;;6.40;99.90;;;;;;5034101;28;20051;-74
2024/01/06 03:10:05;;;;;;;34.22;18.52;;;6.40;99.90;;;;;;5034233;28;20025;-73
2024/01/06 03:12:30;;;;;;;32.47;17.58;;;6.40;99.90;;;;;;5034028;28;20112;-73
2024/01/06 03:14:56;;;;;;;37.20;18.92;;;6.30;99.90;;;;;;5034010;28;20438;-73
2024/01/06 03:17:21;;;;;;;32.42;17.50;;;6.30;99.90;;;;;;5033673;28;20060;-73
2024/01/06 03:19:47;;;;;;;32.05;16.67;;;6.30;99.90;;;;;;5033552;28;20025;-74
2024/01/06 03:22:12;;;;;;;31.52;17.10;;;6.20;99.90;;;;;;5033715;28;20052;-73
2024/01/06 03:24:39;;;;;;;32.67;16.33;;;6.20;99.90;;;;;;5033816;28;20029;-74
2024/01/06 03:27:05;;;;;;;30.08;15.60;;;6.20;99.90;;;;;;5033462;28;20053;-74
2024/01/06 03:29:30;;;;;;;30.52;15.95;;;6.20;99.90;;;;;;5033400;28;20060;-73
2024/01/06 03:31:56;;;;;;;35.25;17.50;;;6.20;99.90;;;;;;5033846;28;20040;-73
2024/01/06 03:34:21;;;;;;;32.75;17.80;;;6.10;99.90;;;;;;5033919;28;20115;-73
2024/01/06 03:36:47;;;;;;;34.30;16.77;;;6.20;99.90;;;;;;5033620;28;20033;-73
2024/01/06 03:39:13;;;;;;;31.85;16.48;;;6.10;99.90;;;;;;5033265;28;20049;-74
2024/01/06 03:41:39;;;;;;;30.42;16.05;;;6.10;99.90;;;;;;5033500;28;20022;-73
2024/01/06 03:44:05;;;;;;;30.88;15.43;;;6.10;99.90;;;;;;5033228;28;20033;-73
2024/01/06 03:46:30;;;;;;;30.80;14.95;;;6.00;99.90;;;;;;5033157;28;20026;-73
2024/01/06 03:48:56;;;;;;;29.35;14.73;;;6.00;99.90;;;;;;5033486;28;20030;-73
2024/01/06 03:51:22;;;;;;;30.17;14.50;;;6.00;99.90;;;;;;5033489;28;20025;-73
2024/01/06 03:53:47;;;;;;;29.10;14.27;;;6.00;99.90;;;;;;5033324;28;20116;-73
2024/01/06 03:56:13;;;;;;;29.55;14.38;;;6.00;99.90;;;;;;5033400;28;20539;-73
2024/01/06 03:58:39;;;;;;;29.05;13.80;;;6.00;99.90;;;;;;5033206;28;20032;-73
2024/01/06 04:01:04;;;;;;;31.73;14.93;;;6.00;99.90;;;;;;5033385;28;20044;-74
2024/01/06 04:03:30;;;;;;;28.58;14.57;;;5.80;99.90;;;;;;5032312;28;20112;-73
2024/01/06 04:05:55;;;;;;;31.38;14.88;;;5.90;99.90;;;;;;5033221;28;20018;-73
2024/01/06 04:08:21;;;;;;;29.83;14.77;;;5.90;99.90;;;;;;5033246;28;20026;-74
2024/01/06 04:10:46;;;;;;;28.48;14.25;;;5.90;99.90;;;;;;5033232;28;20073;-73
2024/01/06 04:13:12;;;;;;;33.40;15.77;;;5.80;99.90;;;;;;5033123;28;20061;-73
2024/01/06 04:15:38;;;;;;;30.23;14.65;;;5.80;99.90;;;;;;5032822;28;20513;-73
2024/01/06 04:18:04;;;;;;;30.88;14.85;;;5.80;99.90;;;;;;5033275;28;20044;-73
2024/01/06 04:20:31;;;;;;;29.30;14.40;;;5.80;99.90;;;;;;5033250;28;20037;-73
2024/01/06 04:22:56;;;;;;;34.05;14.98;;;5.80;99.90;;;;;;5032832;28;20036;-74
2024/01/06 04:25:22;;;;;;;30.20;13.95;;;5.70;99.90;;;;;;5033173;28;20022;-73
2024/01/06 04:27:48;;;;;;;33.90;14.75;;;5.70;99.90;;;;;;5033127;28;20029;-73
2024/01/06 04:30:14;;;;;;;34.67;16.17;;;5.80;99.90;;;;;;5032998;28;20468;-73
2024/01/06 04:32:40;;;;;;;33.63;16.13;;;5.80;99.90;;;;;;5033011;28;20061;-73
2024/01/06 04:35:06;;;;;;;36.20;15.98;;;5.70;99.90;;;;;;5033100;28;20057;-73
2024/01/06 04:37:32;;;;;;;33.42;16.20;;;5.70;99.90;;;;;;5032996;28;20064;-73
2024/01/06 04:39:58;;;;;;;37.42;17.38;;;5.80;99.90;;;;;;5032688;28;20049;-73
2024/01/06 04:42:24;;;;;;;38.45;17.40;;;5.70;99.90;;;;;;5032785;28;20094;-73
2024/01/06 04:44:50;;;;;;;37.85;16.73;;;5.70;99.90;;;;;;5032512;28;20113;-73
2024/01/06 04:47:16;;;;;;;35.47;16.25;;;5.70;99.90;;;;;;5033011;28;20539;-73
2024/01/06 04:49:41;;;;;;;39.22;17.33;;;5.70;99.90;;;;;;5032933;28;20174;-73
2024/01/06 04:52:07;;;;;;;38.35;16.42;;;5.70;99.90;;;;;;5032958;28;20110;-74
2024/01/06 04:54:32;;;;;;;40.85;17.88;;;5.60;99.90;;;;;;5032909;28;20491;-73
2024/01/06 04:56:59;;;;;;;41.63;18.33;;;5.60;99.90;;;;;;5032955;28;20030;-73
2024/01/06 04:59:25;;;;;;;48.42;19.50;;;5.70;99.90;;;;;;5032976;28;20391;-73
2024/01/06 05:01:51;;;;;;;49.85;19.73;;;5.70;99.90;;;;;;5032905;28;20025;-74
2024/01/06 05:04:17;;;;;;;48.42;20.85;;;5.60;99.90;;;;;;5032369;28;20486;-73
2024/01/06 05:06:43;;;;;;;48.08;19.52;;;5.60;99.90;;;;;;5032673;28;20068;-73
2024/01/06 05:09:08;;;;;;;46.00;19.15;;;5.60;99.90;;;;;;5032815;28;20026;-73
2024/01/06 05:11:34;;;;;;;47.72;19.23;;;;;;;;;;5032795;28;20028;-73
2024/01/06 05:14:00;;;;;;;45.42;19.05;;;5.40;99.90;;;;;;5032667;28;20060;-73
2024/01/06 05:16:25;;;;;;;46.50;18.35;;;5.50;99.90;;;;;;5034029;28;20029;-73
2024/01/06 05:18:51;;;;;;;39.90;17.80;;;5.50;99.90;;;;;;5035918;28;20386;-73
2024/01/06 05:21:16;;;;;;;41.03;17.65;;;5.50;99.90;;;;;;5035756;28;20034;-73
2024/01/06 05:23:42;;;;;;;37.33;16.10;;;;;;;;;;5035825;28;20025;-73
2024/01/06 05:26:09;;;;;;;34.97;15.60;;;5.30;99.90;;;;;;5036072;28;20438;-73
2024/01/06 05:28:34;;;;;;;32.90;14.38;;;5.40;99.90;;;;;;5036135;28;20021;-73
2024/01/06 05:31:00;;;;;;;37.10;14.75;;;5.30;99.90;;;;;;5036020;28;20044;-73
2024/01/06 05:33:25;;;;;;;32.03;14.48;;;5.30;99.90;;;;;;5036014;28;20099;-73
2024/01/06 05:35:51;;;;;;;33.95;14.50;;;5.30;99.90;;;;;;5036050;28;20030;-73
2024/01/06 05:38:17;;;;;;;37.40;14.55;;;5.20;99.90;;;;;;5035625;28;20068;-73
2024/01/06 05:40:43;;;;;;;34.08;14.32;;;;;;;;;;5035662;28;20060;-74
2024/01/06 05:43:08;;;;;;;33.60;14.95;;;5.10;99.90;;;;;;5035525;28;20042;-73
2024/01/06 05:45:34;;;;;;;33.63;15.00;;;5.20;99.90;;;;;;5035732;28;20025;-73
2024/01/06 05:47:59;;;;;;;33.90;13.45;;;5.10;99.90;;;;;;5035255;28;20543;-73
2024/01/06 05:50:25;;;;;;;35.17;14.13;;;;;;;;;;5035527;28;20017;-73
2024/01/06 05:52:52;;;;;;;33.63;14.10;;;;;;;;;;5035617;28;20053;-73
2024/01/06 05:55:18;;;;;;;31.23;13.02;;;;;;;;;;5035510;28;20022;-73
2024/01/06 05:57:43;;;;;;;33.55;13.82;;;;;;;;;;5035429;28;20037;-73
2024/01/06 06:00:11;;;;;;;28.52;12.73;;;5.00;99.90;;;;;;5035347;28;20025;-73
2024/01/06 06:02:36;;;;;;;31.35;12.88;;;5.10;99.90;;;;;;5035242;28;20112;-73
2024/01/06 06:05:02;;;;;;;34.20;13.43;;;5.00;99.90;;;;;;5035361;28;20116;-73
2024/01/06 06:07:28;;;;;;;31.73;13.70;;;5.00;99.90;;;;;;5035199;28;20112;-73
2024/01/06 06:09:53;;;;;;;34.08;14.40;;;4.90;99.90;;;;;;5034983;28;20029;-73
2024/01/06 06:12:19;;;;;;;31.83;13.65;;;4.90;99.90;;;;;;5035250;28;20026;-73
2024/01/06 06:14:45;;;;;;;36.45;15.20;;;4.90;99.90;;;;;;5035118;28;20032;-74
2024/01/06 06:17:10;;;;;;;30.63;13.70;;;4.90;99.90;;;;;;5035126;28;20442;-74
2024/01/06 06:19:36;;;;;;;32.42;13.65;;;4.90;99.90;;;;;;5035091;28;20082;-73
2024/01/06 06:22:01;;;;;;;32.20;13.75;;;4.90;99.90;;;;;;5035055;28;20033;-73
2024/01/06 06:24:27;;;;;;;33.20;14.57;;;4.90;99.90;;;;;;5035058;28;20025;-73
2024/01/06 06:26:52;;;;;;;37.90;14.70;;;4.90;99.90;;;;;;5034436;28;20028;-73
2024/01/06 06:29:18;;;;;;;35.55;15.45;;;4.90;99.90;;;;;;5034873;28;20044;-73
2024/01/06 06:31:44;;;;;;;32.80;14.02;;;4.90;99.90;;;;;;5034766;28;20026;-73
2024/01/06 06:34:10;;;;;;;31.75;13.48;;;4.90;99.90;;;;;;5034763;28;20039;-73
2024/01/06 06:36:36;;;;;;;32.22;14.40;;;4.90;99.90;;;;;;5034469;28;20414;-73
2024/01/06 06:39:04;;;;;;;34.25;14.63;;;4.90;99.90;;;;;;5034416;28;20053;-73
2024/01/06 06:41:29;;;;;;;36.47;15.27;;;4.80;99.90;;;;;;5034627;28;20025;-73
2024/01/06 06:43:55;;;;;;;32.50;13.93;;;4.80;99.90;;;;;;5034436;28;20091;-73
2024/01/06 06:46:21;;;;;;;37.75;16.38;;;4.80;99.90;;;;;;5034234;28;20052;-74
2024/01/06 06:48:46;;;;;;;35.33;16.35;;;4.80;99.90;;;;;;5034488;28;20071;-73
2024/01/06 06:51:12;;;;;;;39.90;15.85;;;4.90;99.90;;;;;;5034577;28;20036;-73
2024/01/06 06:53:38;;;;;;;36.88;15.85;;;4.90;99.90;;;;;;5034412;28;20039;-73
2024/01/06 06:56:03;;;;;;;41.67;16.30;;;4.90;99.90;;;;;;5034515;28;20427;-73
2024/01/06 06:58:29;;;;;;;36.78;16.70;;;4.90;99.90;;;;;;5033837;28;20025;-73
2024/01/06 07:00:54;;;;;;;33.58;13.48;;;4.80;99.90;;;;;;5034384;28;20037;-73
2024/01/06 07:03:20;;;;;;;35.55;14.90;;;4.80;99.90;;;;;;5033744;28;20404;-73
2024/01/06 07:05:47;;;;;;;30.70;13.20;;;4.80;99.90;;;;;;5034113;28;20490;-73
2024/01/06 07:08:15;;;;;;;26.63;12.32;;;4.80;99.90;;;;;;5034160;28;20026;-74
2024/01/06 07:10:40;;;;;;;38.22;12.73;;;4.80;99.90;;;;;;5034066;28;20057;-73
2024/01/06 07:13:06;;;;;;;32.28;13.00;;;4.70;99.90;;;;;;5034044;28;20095;-73
2024/01/06 07:15:32;;;;;;;34.05;12.38;;;4.70;99.90;;;;;;5033971;28;20438;-73
2024/01/06 07:17:57;;;;;;;26.52;10.88;;;4.70;99.90;;;;;;5034023;28;20068;-73
2024/01/06 07:20:23;;;;;;;26.55;10.77;;;4.70;99.90;;;;;;5034157;28;20071;-74
2024/01/06 07:22:48;;;;;;;27.27;10.77;;;4.70;99.90;;;;;;5033692;28;20079;-73
2024/01/06 07:25:14;;;;;;;22.33;9.45;;;4.70;99.90;;;;;;5033751;28;20029;-73
2024/01/06 07:27:39;;;;;;;19.15;8.90;;;4.70;99.90;;;;;;5033880;28;20087;-73
2024/01/06 07:30:07;;;;;;;17.77;8.15;;;4.70;99.90;;;;;;5033405;28;20029;-73
2024/01/06 07:32:34;;;;;;;15.10;6.45;;;;;;;;;;5033600;28;20029;-73
2024/01/06 07:34:59;;;;;;;14.82;6.50;;;4.40;99.90;;;;;;5033728;28;20468;-73
2024/01/06 07:37:25;;;;;;;14.68;6.47;;;4.50;99.90;;;;;;5033851;28;20075;-73
2024/01/06 07:39:51;;;;;;;13.77;6.10;;;4.40;99.90;;;;;;5032544;28;20120;-73
2024/01/06 07:42:16;;;;;;;15.52;6.88;;;4.40;99.90;;;;;;5033564;28;20164;-73
2024/01/06 07:44:42;;;;;;;14.30;6.68;;;4.40;99.90;;;;;;5033568;28;20021;-73
2024/01/06 07:47:07;;;;;;;21.23;7.63;;;4.40;99.90;;;;;;5033292;28;20029;-73
2024/01/06 07:49:33;;;;;;;15.88;7.40;;;4.30;99.90;;;;;;5033256;28;20032;-73
2024/01/06 07:51:59;;;;;;;19.45;8.07;;;4.30;99.90;;;;;;5032994;28;20095;-73
2024/01/06 07:54:25;;;;;;;21.98;8.82;;;4.30;99.90;;;;;;5033364;28;20030;-73
2024/01/06 07:56:50;;;;;;;24.15;8.60;;;4.30;99.90;;;;;;5033381;28;20025;-73
2024/01/06 07:59:16;;;;;;;24.13;10.60;;;4.30;99.90;;;;;;5033333;28;20033;-73
2024/01/06 08:01:42;;;;;;;24.70;9.57;;;4.20;99.90;;;;;;5033437;28;20030;-74
2024/01/06 08:04:08;;;;;;;24.85;9.55;;;4.20;99.90;;;;;;5033105;28;20538;-73
2024/01/06 08:06:34;;;;;;;30.10;13.10;;;4.20;99.90;;;;;;5033398;28;20387;-73
2024/01/06 08:09:00;;;;;;;36.40;14.35;;;4.20;99.90;;;;;;5032894;28;20037;-73
2024/01/06 08:11:25;;;;;;;36.33;14.98;;;4.20;99.90;;;;;;5033379;28;20076;-73
2024/01/06 08:13:51;;;;;;;42.33;16.30;;;4.20;99.90;;;;;;5032733;28;20026;-73
2024/01/06 08:16:17;;;;;;;36.65;14.82;;;4.20;99.90;;;;;;5033264;28;20025;-73
2024/01/06 08:18:43;;;;;;;35.28;15.63;;;4.10;99.90;;;;;;5033298;28;20380;-73
2024/01/06 08:21:08;;;;;;;35.22;13.68;;;4.10;99.90;;;;;;5033224;28;20144;-73
2024/01/06 08:23:34;;;;;;;35.17;15.10;;;4.00;99.90;;;;;;5032699;28;20391;-73
2024/01/06 08:26:01;;;;;;;30.58;14.05;;;4.00;99.90;;;;;;5033216;28;20033;-73
2024/01/06 08:28:26;;;;;;;30.35;13.60;;;4.00;99.90;;;;;;5033197;28;20025;-73
2024/01/06 08:30:52;;;;;;;36.13;14.93;;;3.90;99.90;;;;;;5033139;28;20471;-73
2024/01/06 08:33:17;;;;;;;31.58;13.10;;;3.90;99.90;;;;;;5033049;28;20087;-73
2024/01/06 08:35:43;;;;;;;37.70;14.00;;;4.00;99.90;;;;;;5033113;28;20453;-73
2024/01/06 08:38:09;;;;;;;32.55;13.18;;;3.90;99.90;;;;;;5032840;28;20084;-73
2024/01/06 08:40:35;;;;;;;33.58;13.88;;;3.90;99.90;;;;;;5033100;28;20037;-73
2024/01/06 08:43:01;;;;;;;33.55;14.05;;;3.90;99.90;;;;;;5032526;28;20052;-73
2024/01/06 08:45:27;;;;;;;32.13;13.60;;;3.90;99.90;;;;;;5033145;28;20045;-73
2024/01/06 08:47:52;;;;;;;31.42;13.05;;;3.90;99.90;;;;;;5032885;28;20025;-74
2024/01/06 08:50:18;;;;;;;33.85;13.70;;;3.90;99.90;;;;;;5034098;28;20072;-73
2024/01/06 08:52:43;;;;;;;33.28;13.05;;;4.00;99.90;;;;;;5037062;28;20028;-73
2024/01/06 08:55:09;;;;;;;28.85;13.25;;;4.00;99.90;;;;;;5036619;28;20087;-73
2024/01/06 08:57:35;;;;;;;25.35;11.60;;;3.90;99.90;;;;;;5036722;28;20499;-73
2024/01/06 09:00:00;;;;;;;30.17;13.55;;;3.90;99.90;;;;;;5036555;28;20036;-73
2024/01/06 09:02:26;;;;;;;27.15;12.23;;;3.80;99.90;;;;;;5036512;28;20034;-73
2024/01/06 09:04:52;;;;;;;31.77;13.40;;;3.90;99.90;;;;;;5036429;28;20025;-74
2024/01/06 09:07:17;;;;;;;27.85;12.13;;;3.90;99.90;;;;;;5036465;28;20466;-73
2024/01/06 09:09:44;;;;;;;25.52;12.35;;;3.90;99.90;;;;;;5036342;28;20075;-73
2024/01/06 09:12:09;;;;;;;32.53;13.20;;;3.90;99.90;;;;;;5036421;28;20026;-73
2024/01/06 09:14:35;;;;;;;26.40;12.55;;;4.00;99.90;;;;;;5036420;28;20036;-72
2024/01/06 09:17:01;;;;;;;32.50;13.93;;;4.00;99.90;;;;;;5036446;28;20029;-73
2024/01/06 09:19:28;;;;;;;29.33;12.75;;;4.00;99.90;;;;;;5036259;28;20052;-73
2024/01/06 09:21:54;;;;;;;28.73;13.27;;;4.00;99.90;;;;;;5036392;28;20034;-73
2024/01/06 09:24:20;;;;;;;30.98;12.77;;;4.00;99.90;;;;;;5035792;28;20022;-73
2024/01/06 09:26:46;;;;;;;31.58;13.98;;;3.90;99.90;;;;;;5036090;28;20025;-73
2024/01/06 09:29:11;;;;;;;28.02;12.85;;;4.00;99.90;;;;;;5036029;28;20018;-73
2024/01/06 09:31:37;;;;;;;36.40;14.45;;;4.00;99.90;;;;;;5036049;28;20162;-73
2024/01/06 09:34:03;;;;;;;33.67;14.02;;;4.00;99.90;;;;;;5036048;28;20065;-73
2024/01/06 09:36:30;;;;;;;31.50;14.50;;;3.90;99.90;;;;;;5035902;28;20036;-73
2024/01/06 09:38:56;;;;;;;35.70;14.30;;;4.00;99.90;;;;;;5035737;28;20408;-73
2024/01/06 09:41:21;;;;;;;32.15;14.18;;;4.00;99.90;;;;;;5035872;28;20087;-73
2024/01/06 09:43:47;;;;;;;33.80;15.05;;;3.90;99.90;;;;;;5035540;28;20111;-73
2024/01/06 09:46:21;;;;;;;36.33;15.43;;;3.90;99.90;;;;;;5035651;28;20498;-73
2024/01/06 09:48:51;;;;;;;36.63;16.27;;;3.90;99.90;;;;;;5035619;28;20040;-73
2024/01/06 09:51:18;;;;;;;37.08;16.70;;;3.80;99.90;;;;;;5035261;28;20052;-73
2024/01/06 09:54:07;;;;;;;39.13;16.42;;;3.80;99.90;;;;;;5035533;28;20057;-73
2024/01/06 09:56:33;;;;;;;37.90;16.20;;;3.80;99.90;;;;;;5035542;28;20108;-73
2024/01/06 09:58:59;;;;;;;42.72;15.90;;;3.80;99.90;;;;;;5035544;28;20029;-73
2024/01/06 10:01:24;;;;;;;36.53;15.57;;;3.70;99.90;;;;;;5034846;28;20120;-74
2024/01/06 10:03:50;;;;;;;39.92;16.90;;;3.80;99.90;;;;;;5034995;28;20026;-73
2024/01/06 10:06:17;;;;;;;36.35;16.25;;;3.80;99.90;;;;;;5035365;28;20021;-74
2024/01/06 10:08:47;;;;;;;37.08;16.42;;;3.80;99.90;;;;;;5035073;28;20021;-74
2024/01/06 10:11:13;;;;;;;39.95;16.65;;;3.80;99.90;;;;;;5034963;28;20391;-74
2024/01/06 10:13:39;;;;;;;36.60;15.52;;;3.80;99.90;;;;;;5035308;28;20116;-73
2024/01/06 10:16:05;;;;;;;33.63;14.82;;;3.80;99.90;;;;;;5035279;28;20033;-73
2024/01/06 10:18:31;;;;;;;35.17;14.52;;;3.80;99.90;;;;;;5035274;28;20036;-73
2024/01/06 10:20:58;;;;;;;34.60;14.90;;;3.80;99.90;;;;;;5035077;28;20030;-73
2024/01/06 10:23:24;;;;;;;37.70;14.95;;;3.70;99.90;;;;;;5034534;28;20060;-73
2024/01/06 10:25:53;;;;;;;40.17;16.42;;;3.80;99.90;;;;;;5035030;28;20417;-73
2024/01/06 10:28:21;;;;;;;37.63;15.35;;;3.70;99.90;;;;;;5034497;28;20511;-73
2024/01/06 10:30:47;;;;;;;38.63;15.82;;;3.70;99.90;;;;;;5034836;28;20022;-73
2024/01/06 10:33:13;;;;;;;38.95;15.75;;;3.70;99.90;;;;;;5034927;28;20032;-73
2024/01/06 10:35:40;;;;;;;40.60;15.60;;;3.70;99.90;;;;;;5034703;28;20083;-74
2024/01/06 10:38:07;;;;;;;40.17;17.27;;;3.70;99.90;;;;;;5034232;28;20033;-73
2024/01/06 10:40:33;;;;;;;41.60;16.25;;;3.70;99.90;;;;;;5034618;28;20033;-73
2024/01/06 10:43:00;;;;;;;39.35;16.17;;;3.60;99.90;;;;;;5034242;28;20033;-73
2024/01/06 10:45:28;;;;;;;39.88;16.08;;;3.60;99.90;;;;;;5034712;28;20056;-74
2024/01/06 10:47:55;;;;;;;37.33;16.20;;;3.60;99.90;;;;;;5034054;28;20032;-74
2024/01/06 10:50:22;;;;;;;41.65;17.50;;;3.50;99.90;;;;;;5034496;28;20021;-73
2024/01/06 10:52:48;;;;;;;37.17;16.55;;;3.50;99.90;;;;;;5034420;28;20061;-74
2024/01/06 10:55:17;;;;;;;37.50;15.77;;;3.60;99.90;;;;;;5034426;28;20036;-73
2024/01/06 10:57:44;;;;;;;34.10;15.07;;;3.60;99.90;;;;;;5034253;28;20120;-74
2024/01/06 11:00:10;;;;;;;36.10;14.65;;;3.60;99.90;;;;;;5033833;28;20068;-73
2024/01/06 11:02:37;;;;;;;39.05;15.07;;;3.60;99.90;;;;;;5034256;28;20036;-74
2024/01/06 11:05:07;;;;;;;35.08;14.90;;;3.60;99.90;;;;;;5034167;28;20044;-74
2024/01/06 11:07:33;;;;;;;37.67;15.85;;;3.60;99.90;;;;;;5034068;28;20037;-73
2024/01/06 11:10:09;;;;;;;38.58;15.02;;;3.50;99.90;;;;;;5034173;28;20033;-73
2024/01/06 11:12:35;;;;;;;40.15;16.45;;;3.50;99.90;;;;;;5034151;28;20395;-74
2024/01/06 11:15:00;;;;;;;39.95;16.10;;;3.50;99.90;;;;;;5033606;28;20025;-73
2024/01/06 11:17:53;;;;;;;45.13;17.55;;;3.50;99.90;;;;;;5034215;28;20033;-74
2024/01/06 11:20:21;;;;;;;42.75;17.55;;;3.50;99.90;;;;;;5033819;28;20127;-74
2024/01/06 11:22:47;;;;;;;47.25;18.55;;;3.50;99.90;;;;;;5033521;28;20039;-73
2024/01/06 11:25:15;;;;;;;46.90;18.77;;;3.50;99.90;;;;;;5033916;28;20112;-73
2024/01/06 11:27:44;;;;;;;47.10;19.92;;;3.50;99.90;;;;;;5033480;28;20419;-73
2024/01/06 11:30:20;;;;;;;50.00;19.55;;;3.50;99.90;;;;;;5034069;28;20029;-74
2024/01/06 11:32:46;;;;;;;50.53;20.40;;;3.40;99.90;;;;;;5033661;28;20128;-73
2024/01/06 11:35:14;;;;;;;46.22;19.73;;;3.40;99.90;;;;;;5033295;28;20495;-74
2024/01/06 11:40:25;;;;;;;41.53;17.73;;;3.40;99.90;;;;;;5130839;27;20311;-74
2024/01/06 11:43:09;;;;;;;41.67;17.95;;;3.50;99.90;;;;;;5111134;28;20035;-73
2024/01/06 11:45:36;;;;;;;45.28;17.02;;;3.40;99.90;;;;;;5111011;28;20032;-72
2024/01/06 11:48:07;;;;;;;44.47;18.52;;;3.40;99.90;;;;;;5111099;28;20393;-72
2024/01/06 11:50:34;;;;;;;37.50;15.77;;;3.50;99.90;;;;;;5110990;28;20047;-72
2024/01/06 11:53:01;;;;;;;38.50;15.82;;;3.50;99.90;;;;;;5111087;28;20034;-73
2024/01/06 11:55:28;;;;;;;31.25;13.95;;;3.60;99.90;;;;;;5110591;28;20397;-72
2024/01/06 11:57:56;;;;;;;26.83;12.30;;;3.60;99.90;;;;;;5110783;28;20043;-73
2024/01/06 12:00:21;;;;;;;30.25;13.93;;;3.60;99.90;;;;;;5110858;28;20028;-73
2024/01/06 12:02:47;;;;;;;30.27;12.23;;;3.60;99.90;;;;;;5090450;28;20158;-73
2024/01/06 12:05:17;;;;;;;27.85;12.98;;;3.60;99.90;;;;;;5090470;28;20035;-72
2024/01/06 12:07:43;;;;;;;29.75;13.70;;;3.60;99.90;;;;;;5090401;28;20474;-72
2024/01/06 12:10:10;;;;;;;32.03;13.45;;;3.60;99.90;;;;;;5090251;28;20113;-72
2024/01/06 12:12:35;;;;;;;28.88;13.18;;;3.60;99.90;;;;;;5090210;28;20033;-72
2024/01/06 12:15:01;;;;;;;29.63;13.43;;;3.60;99.90;;;;;;5090285;28;20020;-72
2024/01/06 12:17:30;;;;;;;31.50;14.30;;;3.60;99.90;;;;;;5090340;28;20436;-73
2024/01/06 12:19:55;;;;;;;29.33;13.30;;;3.60;99.90;;;;;;5089871;28;20028;-73
2024/01/06 12:22:21;;;;;;;31.30;13.77;;;3.50;99.90;;;;;;5090071;28;20531;-73
2024/01/06 12:24:50;;;;;;;30.55;14.43;;;3.50;99.90;;;;;;5090036;28;20063;-73
2024/01/06 12:27:17;;;;;;;33.33;13.63;;;3.40;99.90;;;;;;5089987;28;20024;-73
2024/01/06 12:29:43;;;;;;;30.17;13.13;;;3.40;99.90;;;;;;5089571;28;20394;-72
2024/01/06 12:32:10;;;;;;;26.75;12.70;;;3.50;99.90;;;;;;5089893;28;20035;-73
2024/01/06 12:34:36;;;;;;;30.58;13.13;;;3.50;99.90;;;;;;5089522;28;20397;-72
2024/01/06 12:37:02;;;;;;;35.47;14.18;;;3.50;99.90;;;;;;5089866;28;20482;-72